Time;durP1;ratioP1;P1;durP2;ratioP2;P2;SDS_P1;SDS_P2;PMS_P1;PMS_P2;Temp;Humidity;BMP_temperature;BMP_pressure;BME280_temperature;BME280_humidity;BME280_pressure;Samples;Min_cycle;Max_cycle;Signal;HPM_P1;HPM_P2
2021/06/02 00:02:08;;;;;;;3.47;2.58;;;19.70;99.90;;;;;;5088262;28;20449;-92
2021/06/02 00:04:54;;;;;;;4.72;3.08;;;19.80;99.90;;;;;;5084345;28;20029;-91
2021/06/02 00:07:23;;;;;;;3.72;2.78;;;19.70;99.90;;;;;;5087041;28;20066;-92
2021/06/02 00:09:53;;;;;;;3.70;2.75;;;19.70;99.90;;;;;;5074096;28;20035;-92
2021/06/02 00:12:20;;;;;;;6.40;2.80;;;19.70;99.90;;;;;;5092321;28;20024;-91
2021/06/02 00:14:46;;;;;;;4.30;2.78;;;19.70;99.90;;;;;;5075207;28;20057;-91
2021/06/02 00:17:12;;;;;;;4.47;2.80;;;19.60;99.90;;;;;;5093553;28;20028;-92
2021/06/02 00:19:38;;;;;;;3.38;2.53;;;19.70;99.90;;;;;;5092548;28;20084;-92
2021/06/02 00:22:07;;;;;;;3.65;2.80;;;19.70;99.90;;;;;;5074845;28;20036;-92
2021/06/02 00:24:35;;;;;;;6.50;2.75;;;19.70;99.90;;;;;;5092547;28;20043;-91
2021/06/02 00:27:08;;;;;;;3.47;2.70;;;19.60;99.90;;;;;;5087141;28;20572;-93
2021/06/02 00:29:36;;;;;;;3.53;3.05;;;19.60;99.90;;;;;;5089619;28;20024;-92
2021/06/02 00:32:19;;;;;;;4.75;2.90;;;19.70;99.90;;;;;;5093125;28;20043;-92
2021/06/02 00:34:53;;;;;;;4.20;2.67;;;19.60;99.90;;;;;;5071950;28;20056;-92
2021/06/02 00:37:32;;;;;;;4.43;2.53;;;19.60;99.90;;;;;;5090529;28;20028;-92
2021/06/02 00:40:05;;;;;;;3.20;2.67;;;19.60;99.90;;;;;;5074850;28;20035;-92
2021/06/02 00:42:32;;;;;;;3.67;2.75;;;19.50;99.90;;;;;;5092405;28;20032;-92
2021/06/02 00:45:03;;;;;;;3.53;2.78;;;19.50;99.90;;;;;;5075095;28;20118;-92
2021/06/02 00:47:39;;;;;;;5.38;2.90;;;19.50;99.90;;;;;;5092374;28;20027;-92
2021/06/02 00:50:25;;;;;;;3.38;2.63;;;19.50;99.90;;;;;;5092638;28;20028;-92
2021/06/02 00:52:58;;;;;;;5.72;3.00;;;19.50;99.90;;;;;;5092606;28;20070;-92
2021/06/02 00:55:24;;;;;;;3.95;2.75;;;19.50;99.90;;;;;;5093200;28;20055;-91
2021/06/02 00:57:56;;;;;;;4.68;2.90;;;19.50;99.90;;;;;;5074802;28;20031;-91
2021/06/02 01:00:24;;;;;;;5.07;3.00;;;19.50;99.90;;;;;;5092188;28;20028;-91
2021/06/02 01:02:54;;;;;;;4.75;2.90;;;19.40;99.90;;;;;;5088146;28;20124;-91
2021/06/02 01:05:22;;;;;;;5.20;2.95;;;19.40;99.90;;;;;;5092743;28;20039;-90
2021/06/02 01:07:51;;;;;;;4.65;3.03;;;19.40;99.90;;;;;;5094013;28;20067;-92
2021/06/02 01:10:20;;;;;;;3.75;2.55;;;19.50;99.90;;;;;;5075030;28;20492;-91
2021/06/02 01:12:50;;;;;;;4.10;3.08;;;19.50;99.90;;;;;;5059022;28;20024;-91
2021/06/02 01:15:19;;;;;;;5.35;2.80;;;19.50;99.90;;;;;;5072413;28;20036;-91
2021/06/02 01:17:44;;;;;;;3.67;2.90;;;19.50;99.90;;;;;;5094142;28;20043;-91
2021/06/02 01:20:11;;;;;;;3.95;2.63;;;19.50;99.90;;;;;;5096471;28;20508;-91
2021/06/02 01:22:39;;;;;;;5.60;3.42;;;19.40;99.90;;;;;;5096266;28;20594;-92
2021/06/02 01:25:17;;;;;;;5.50;2.92;;;19.40;99.90;;;;;;5078346;28;20122;-91
2021/06/02 01:27:47;;;;;;;3.47;2.78;;;19.30;99.90;;;;;;5067665;28;20025;-91
2021/06/02 01:30:22;;;;;;;5.00;3.00;;;19.40;99.90;;;;;;5077820;28;20169;-92
2021/06/02 01:32:56;;;;;;;6.20;2.78;;;19.30;99.90;;;;;;5077586;28;20058;-91
2021/06/02 01:35:36;;;;;;;3.72;2.97;;;19.30;99.90;;;;;;5096460;28;20044;-92
2021/06/02 01:38:20;;;;;;;5.05;2.78;;;19.20;99.90;;;;;;5079040;28;20071;-91
2021/06/02 01:41:13;;;;;;;3.47;2.90;;;19.30;99.90;;;;;;5083373;28;20020;-91
2021/06/02 01:43:48;;;;;;;4.68;3.20;;;19.40;99.90;;;;;;5080818;28;20032;-91
2021/06/02 01:46:20;;;;;;;3.80;2.67;;;19.40;99.90;;;;;;5096069;28;20020;-93
2021/06/02 01:49:19;;;;;;;4.18;2.80;;;19.40;99.90;;;;;;5094770;28;20028;-91
2021/06/02 01:52:11;;;;;;;3.50;2.38;;;19.40;99.90;;;;;;5088504;28;20038;-91
2021/06/02 01:54:58;;;;;;;5.15;2.70;;;19.30;99.90;;;;;;5092817;28;20024;-91
2021/06/02 01:57:41;;;;;;;3.20;2.65;;;19.40;99.90;;;;;;5095547;28;20483;-91
2021/06/02 02:00:42;;;;;;;4.90;3.17;;;19.40;99.90;;;;;;5089674;28;20051;-92
2021/06/02 02:03:38;;;;;;;3.75;2.95;;;19.40;99.90;;;;;;5075680;28;20039;-91
2021/06/02 02:06:13;;;;;;;3.42;2.58;;;19.40;99.90;;;;;;5092262;28;20039;-92
2021/06/02 02:08:46;;;;;;;3.75;2.88;;;19.40;99.90;;;;;;5076829;28;20020;-92
2021/06/02 02:11:29;;;;;;;3.88;3.08;;;19.30;99.90;;;;;;5078805;28;20559;-91
2021/06/02 02:13:54;;;;;;;5.97;3.20;;;19.10;99.90;;;;;;5092099;28;20036;-91
2021/06/02 02:16:34;;;;;;;4.72;3.20;;;19.00;99.90;;;;;;5075911;28;20441;-91
2021/06/02 02:19:24;;;;;;;3.58;2.58;;;19.20;99.90;;;;;;5091115;28;20150;-92
2021/06/02 02:22:04;;;;;;;6.03;3.53;;;19.30;99.90;;;;;;5075917;28;20039;-91
2021/06/02 02:25:00;;;;;;;5.22;3.00;;;19.40;99.90;;;;;;5088697;28;20043;-92
2021/06/02 02:27:55;;;;;;;5.45;3.20;;;19.40;99.90;;;;;;5071644;28;20024;-91
2021/06/02 02:30:37;;;;;;;3.33;3.03;;;19.40;99.90;;;;;;5075321;28;20040;-91
2021/06/02 02:33:17;;;;;;;4.53;3.70;;;19.40;99.90;;;;;;5070734;28;20044;-91
2021/06/02 02:35:55;;;;;;;6.28;4.70;;;19.40;99.90;;;;;;5083576;28;20031;-91
2021/06/02 02:38:39;;;;;;;4.47;4.07;;;19.30;99.90;;;;;;5074344;28;20040;-91
2021/06/02 02:41:07;;;;;;;4.07;3.70;;;19.30;99.90;;;;;;5089843;28;20112;-92
2021/06/02 02:43:48;;;;;;;6.07;3.08;;;19.20;99.90;;;;;;5078414;28;20416;-91
2021/06/02 02:46:29;;;;;;;4.88;3.15;;;19.30;99.90;;;;;;5091175;28;20023;-91
2021/06/02 02:49:16;;;;;;;3.78;2.90;;;19.20;99.90;;;;;;5075422;28;20028;-91
2021/06/02 02:52:34;;;;;;;3.75;2.95;;;19.20;99.90;;;;;;5071429;28;20024;-94
2021/06/02 02:55:26;;;;;;;3.70;2.85;;;19.20;99.90;;;;;;5067836;28;20039;-91
2021/06/02 02:57:56;;;;;;;6.82;3.10;;;18.90;99.90;;;;;;5093370;28;20024;-92
2021/06/02 03:00:32;;;;;;;2.97;2.67;;;18.80;99.90;;;;;;5090280;28;20038;-91
2021/06/02 03:03:02;;;;;;;6.40;3.65;;;18.60;99.90;;;;;;5083973;28;20050;-92
2021/06/02 03:05:34;;;;;;;5.22;3.13;;;18.60;99.90;;;;;;5091894;28;20491;-91
2021/06/02 03:08:12;;;;;;;4.75;3.03;;;18.70;99.90;;;;;;5074294;28;20024;-92
2021/06/02 03:10:47;;;;;;;5.85;3.33;;;18.80;99.90;;;;;;5058658;28;20478;-91
2021/06/02 03:13:59;;;;;;;4.85;2.90;;;18.70;99.90;;;;;;5076550;28;20028;-92
2021/06/02 03:16:30;;;;;;;3.30;3.00;;;18.80;99.90;;;;;;5070394;28;20032;-93
2021/06/02 03:19:12;;;;;;;6.70;3.00;;;18.80;99.90;;;;;;5075966;28;20043;-94
2021/06/02 03:21:59;;;;;;;3.60;3.30;;;18.80;99.90;;;;;;5072227;28;20173;-95
2021/06/02 03:24:28;;;;;;;4.63;3.67;;;18.70;99.90;;;;;;5067784;28;20062;-94
2021/06/02 03:27:09;;;;;;;4.47;3.88;;;18.60;99.90;;;;;;5091271;28;20055;-95
2021/06/02 03:29:53;;;;;;;4.38;3.65;;;18.50;99.90;;;;;;5083489;28;20020;-94
2021/06/02 03:32:45;;;;;;;3.75;3.20;;;18.50;99.90;;;;;;5092190;28;20419;-93
2021/06/02 03:35:19;;;;;;;4.95;3.35;;;18.50;99.90;;;;;;5075094;28;20557;-94
2021/06/02 03:37:57;;;;;;;4.30;3.58;;;18.50;99.90;;;;;;5074639;28;20034;-94
2021/06/02 03:40:55;;;;;;;3.50;3.20;;;18.50;99.90;;;;;;5088116;28;20039;-94
2021/06/02 03:43:40;;;;;;;4.50;3.35;;;18.40;99.90;;;;;;5066806;28;20037;-94
2021/06/02 03:46:27;;;;;;;5.40;3.63;;;18.40;99.90;;;;;;5084271;28;20028;-94
2021/06/02 03:49:16;;;;;;;5.28;3.47;;;18.40;99.90;;;;;;5092432;28;20536;-93
2021/06/02 03:51:53;;;;;;;4.65;3.42;;;18.30;99.90;;;;;;5090997;28;20036;-93
2021/06/02 03:54:32;;;;;;;4.03;3.63;;;18.20;99.90;;;;;;5069876;28;20036;-94
2021/06/02 03:57:13;;;;;;;4.30;3.08;;;18.20;1.00;;;;;;5082925;28;20021;-92
2021/06/02 04:00:01;;;;;;;3.95;3.20;;;18.20;99.90;;;;;;5092633;28;20409;-93
2021/06/02 04:02:32;;;;;;;4.28;3.10;;;18.20;99.90;;;;;;5091245;28;20036;-92
2021/06/02 04:05:14;;;;;;;5.05;3.35;;;18.10;99.90;;;;;;5072652;28;20044;-94
2021/06/02 04:08:08;;;;;;;5.32;3.55;;;18.10;99.90;;;;;;5075586;28;20435;-94
2021/06/02 04:11:08;;;;;;;5.18;3.63;;;18.00;99.90;;;;;;5072732;28;20427;-95
2021/06/02 04:13:53;;;;;;;5.00;4.00;;;18.20;99.90;;;;;;5085028;28;20064;-95
2021/06/02 04:16:22;;;;;;;4.28;3.70;;;18.10;99.90;;;;;;5093356;28;20475;-94
2021/06/02 04:18:48;;;;;;;5.18;3.63;;;18.10;1.00;;;;;;5074067;28;20012;-95
2021/06/02 04:21:16;;;;;;;6.35;4.30;;;18.20;1.00;;;;;;5084787;28;20040;-95
2021/06/02 04:23:43;;;;;;;11.55;4.60;;;18.20;1.00;;;;;;5068105;28;20407;-94
2021/06/02 04:26:10;;;;;;;5.25;4.53;;;18.10;1.00;;;;;;5065057;28;20063;-94
2021/06/02 04:28:37;;;;;;;8.88;4.70;;;18.10;1.00;;;;;;5072136;28;20472;-95
2021/06/02 04:31:11;;;;;;;6.65;4.28;;;18.00;1.00;;;;;;5075861;28;20491;-95
2021/06/02 04:33:38;;;;;;;7.25;4.40;;;18.00;1.00;;;;;;5072246;28;20048;-95
2021/06/02 04:36:06;;;;;;;6.20;3.80;;;18.00;1.00;;;;;;5075539;28;20056;-94
2021/06/02 04:38:33;;;;;;;4.57;3.53;;;18.10;1.00;;;;;;5075677;28;20024;-94
2021/06/02 04:41:01;;;;;;;5.07;3.35;;;18.10;1.00;;;;;;5068171;28;20028;-94
2021/06/02 04:43:29;;;;;;;4.90;3.10;;;18.00;1.00;;;;;;5090824;28;20047;-93
2021/06/02 04:45:58;;;;;;;4.30;3.38;;;18.10;99.90;;;;;;5073565;28;20017;-94
2021/06/02 04:48:24;;;;;;;4.55;3.50;;;18.20;1.00;;;;;;5076117;28;20571;-94
2021/06/02 04:51:23;;;;;;;6.50;3.88;;;18.10;1.00;;;;;;5093712;28;20012;-94
2021/06/02 04:54:13;;;;;;;5.20;3.55;;;18.10;1.00;;;;;;5079310;28;20061;-93
2021/06/02 04:57:16;;;;;;;5.45;4.05;;;18.00;1.00;;;;;;5067602;28;20100;-93
2021/06/02 05:00:16;;;;;;;5.93;4.20;;;17.90;1.00;;;;;;5090610;28;20103;-93
2021/06/02 05:03:03;;;;;;;6.40;3.70;;;18.00;1.00;;;;;;5031894;28;20571;-93
2021/06/02 05:05:34;;;;;;;4.78;3.75;;;17.90;1.00;;;;;;5034917;28;20038;-94
2021/06/02 05:08:50;;;;;;;5.95;3.65;;;17.80;1.00;;;;;;5028863;28;20046;-94
2021/06/02 05:11:46;;;;;;;5.03;3.80;;;17.90;1.00;;;;;;4985134;28;20387;-93
2021/06/02 05:15:05;;;;;;;4.68;3.45;;;17.70;1.00;;;;;;4996443;28;20046;-93
2021/06/02 05:17:49;;;;;;;4.25;3.85;;;17.80;1.00;;;;;;5003657;28;20465;-93
2021/06/02 05:23:50;;;;;;;4.18;3.70;;;17.90;1.00;;;;;;4974542;28;20039;-93
2021/06/02 05:27:00;;;;;;;4.72;3.58;;;18.00;1.00;;;;;;4968952;28;20035;-94
2021/06/02 05:29:50;;;;;;;7.47;4.00;;;18.00;1.00;;;;;;4887716;29;20048;-93
2021/06/02 05:32:44;;;;;;;4.75;3.40;;;18.10;1.00;;;;;;4889758;29;20052;-93
2021/06/02 05:35:46;;;;;;;5.25;3.80;;;18.10;1.00;;;;;;4894232;29;20037;-96
2021/06/02 05:38:27;;;;;;;4.93;3.95;;;18.10;1.00;;;;;;4897075;29;20126;-96
2021/06/02 05:41:28;;;;;;;4.40;3.70;;;18.10;1.00;;;;;;4901327;29;20044;-96
2021/06/02 05:44:12;;;;;;;5.22;3.58;;;18.20;1.00;;;;;;4916937;29;20047;-96
2021/06/02 05:46:40;;;;;;;4.20;3.80;;;18.30;1.00;;;;;;4922566;29;20050;-96
2021/06/02 05:49:59;;;;;;;4.03;3.45;;;18.40;1.00;;;;;;4957321;28;20031;-96
2021/06/02 05:52:39;;;;;;;8.55;4.85;;;18.30;1.00;;;;;;4862114;29;20042;-95
2021/06/02 05:55:40;;;;;;;16.27;6.43;;;18.20;1.00;;;;;;4872767;29;20041;-90
2021/06/02 05:58:25;;;;;;;7.95;4.40;;;18.20;1.00;;;;;;4881123;29;20037;-90
2021/06/02 06:01:07;;;;;;;7.72;4.00;;;18.30;1.00;;;;;;4907924;29;20063;-91
2021/06/02 06:03:51;;;;;;;5.97;3.97;;;18.40;1.00;;;;;;4916571;29;20132;-90
2021/06/02 06:06:43;;;;;;;6.53;4.53;;;18.50;1.00;;;;;;4964761;28;20069;-91
2021/06/02 06:09:58;;;;;;;4.20;3.80;;;18.40;1.00;;;;;;4977942;28;20062;-91
2021/06/02 06:12:56;;;;;;;5.45;4.15;;;18.30;1.00;;;;;;5000891;28;20652;-91
2021/06/02 06:15:35;;;;;;;6.30;4.43;;;18.40;1.00;;;;;;4975636;28;20137;-90
2021/06/02 06:18:20;;;;;;;6.93;4.38;;;18.30;1.00;;;;;;4993467;28;20030;-96
2021/06/02 06:21:22;;;;;;;5.55;5.05;;;18.20;1.00;;;;;;4989258;28;20443;-95
2021/06/02 06:24:08;;;;;;;5.35;4.10;;;18.40;1.00;;;;;;5068417;28;20093;-93
2021/06/02 06:26:49;;;;;;;5.47;4.03;;;18.30;1.00;;;;;;5092776;28;20028;-93
2021/06/02 06:29:45;;;;;;;4.32;3.85;;;18.20;1.00;;;;;;5080673;28;20028;-93
2021/06/02 06:32:11;;;;;;;5.30;4.32;;;18.30;1.00;;;;;;5069394;28;20052;-93
2021/06/02 06:34:39;;;;;;;5.60;4.50;;;18.10;1.00;;;;;;5091052;28;20035;-93
2021/06/02 06:37:05;;;;;;;5.60;4.55;;;18.20;1.00;;;;;;5076323;28;20495;-93
2021/06/02 06:39:52;;;;;;;4.82;4.40;;;18.30;1.00;;;;;;5094366;28;20036;-93
2021/06/02 06:42:27;;;;;;;8.90;4.88;;;18.40;1.00;;;;;;5092828;28;20036;-94
2021/06/02 06:44:57;;;;;;;6.30;4.55;;;18.50;1.00;;;;;;5090268;28;20157;-93
2021/06/02 06:47:24;;;;;;;5.72;4.20;;;18.50;1.00;;;;;;5069603;28;20028;-94
2021/06/02 06:49:54;;;;;;;4.43;3.75;;;18.40;1.00;;;;;;5090308;28;20025;-94
2021/06/02 06:52:24;;;;;;;5.18;3.95;;;18.50;1.00;;;;;;5087308;28;20035;-93
2021/06/02 06:54:52;;;;;;;4.82;3.45;;;18.50;1.00;;;;;;5092708;28;20028;-94
2021/06/02 06:57:19;;;;;;;4.32;3.33;;;18.30;1.00;;;;;;5088359;28;20024;-91
2021/06/02 06:59:46;;;;;;;5.65;3.45;;;18.00;1.00;;;;;;5069906;28;20029;-93
2021/06/02 07:02:14;;;;;;;5.57;3.50;;;17.90;1.00;;;;;;5075699;28;20031;-94
2021/06/02 07:04:41;;;;;;;4.85;3.40;;;17.90;1.00;;;;;;5073606;28;20028;-94
2021/06/02 07:07:08;;;;;;;3.78;3.30;;;18.00;1.00;;;;;;5092965;28;20047;-94
2021/06/02 07:09:34;;;;;;;4.05;3.10;;;18.10;1.00;;;;;;5089676;28;20034;-93
2021/06/02 07:12:00;;;;;;;4.65;3.30;;;18.10;1.00;;;;;;5084864;28;20108;-94
2021/06/02 07:14:29;;;;;;;4.85;3.60;;;18.20;1.00;;;;;;5076603;28;20020;-93
2021/06/02 07:16:57;;;;;;;6.55;3.92;;;18.30;1.00;;;;;;5074222;28;20127;-93
2021/06/02 07:19:23;;;;;;;5.78;3.45;;;18.40;1.00;;;;;;5089814;28;20012;-94
2021/06/02 07:21:50;;;;;;;3.80;3.40;;;18.50;1.00;;;;;;5072900;28;20094;-93
2021/06/02 07:24:18;;;;;;;3.88;3.25;;;18.70;1.00;;;;;;5075337;28;20040;-95
2021/06/02 07:26:45;;;;;;;3.65;3.30;;;18.70;1.00;;;;;;5091934;28;20020;-95
2021/06/02 07:29:11;;;;;;;5.75;3.38;;;18.60;1.00;;;;;;5075288;28;20024;-95
2021/06/02 07:31:36;;;;;;;3.88;3.53;;;18.70;1.00;;;;;;5072387;28;20484;-94
2021/06/02 07:34:02;;;;;;;3.88;3.47;;;18.80;1.00;;;;;;5075665;28;20042;-95
2021/06/02 07:36:28;;;;;;;4.13;3.75;;;18.90;1.00;;;;;;5072648;28;20107;-95
2021/06/02 07:38:53;;;;;;;5.10;3.80;;;19.00;1.00;;;;;;5086443;28;20503;-95
2021/06/02 07:41:19;;;;;;;4.85;3.72;;;19.10;1.00;;;;;;5070233;28;20024;-94
2021/06/02 07:43:45;;;;;;;4.07;3.70;;;19.20;1.00;;;;;;5090115;28;20176;-95
2021/06/02 07:46:10;;;;;;;4.18;3.40;;;19.20;1.00;;;;;;5091606;28;20035;-96
2021/06/02 07:48:36;;;;;;;4.93;3.33;;;19.10;1.00;;;;;;5088894;28;20111;-95
2021/06/02 07:51:02;;;;;;;5.82;3.70;;;19.00;1.00;;;;;;5070588;28;20032;-95
2021/06/02 07:53:27;;;;;;;6.05;3.50;;;19.10;1.00;;;;;;5070734;28;20036;-96
2021/06/02 07:55:54;;;;;;;4.78;3.55;;;19.20;1.00;;;;;;5066345;28;20025;-95
2021/06/02 07:58:19;;;;;;;5.13;4.03;;;19.10;1.00;;;;;;5073734;28;20503;-95
2021/06/02 08:00:45;;;;;;;4.20;3.78;;;19.10;1.00;;;;;;5093152;28;20016;-95
2021/06/02 08:03:11;;;;;;;4.63;3.60;;;19.20;1.00;;;;;;5087414;28;20044;-96
2021/06/02 08:05:36;;;;;;;4.50;3.97;;;19.00;1.00;;;;;;5086990;28;20020;-96
2021/06/02 08:08:02;;;;;;;5.68;3.78;;;19.00;1.00;;;;;;5067454;28;20024;-95
2021/06/02 08:10:28;;;;;;;7.47;4.57;;;19.20;1.00;;;;;;5069313;28;20500;-95
2021/06/02 08:12:54;;;;;;;4.80;3.75;;;19.30;1.00;;;;;;5074527;28;20392;-95
2021/06/02 08:15:20;;;;;;;5.70;4.05;;;19.40;1.00;;;;;;5068595;28;20114;-95
2021/06/02 08:17:47;;;;;;;6.38;3.88;;;19.30;1.00;;;;;;5073323;28;20028;-95
2021/06/02 08:20:14;;;;;;;3.75;3.35;;;19.40;1.00;;;;;;5088790;28;20027;-94
2021/06/02 08:22:40;;;;;;;5.97;3.83;;;19.30;1.00;;;;;;5084470;28;20378;-95
2021/06/02 08:25:09;;;;;;;5.85;3.58;;;19.50;1.00;;;;;;5092371;28;20027;-95
2021/06/02 08:27:35;;;;;;;4.95;3.63;;;19.40;1.00;;;;;;5101878;28;20546;-95
2021/06/02 08:30:02;;;;;;;4.43;3.30;;;19.20;1.00;;;;;;5074019;28;20032;-95
2021/06/02 08:32:27;;;;;;;5.78;3.83;;;19.20;1.00;;;;;;5086461;28;20113;-95
2021/06/02 08:34:53;;;;;;;5.55;3.80;;;19.30;1.00;;;;;;5086919;28;20484;-95
2021/06/02 08:37:19;;;;;;;4.15;3.72;;;19.20;1.00;;;;;;5089209;28;20017;-95
2021/06/02 08:39:45;;;;;;;4.57;3.85;;;19.20;1.00;;;;;;5070348;28;20040;-96
2021/06/02 08:42:12;;;;;;;6.03;3.85;;;19.10;1.00;;;;;;5069894;28;20040;-95
2021/06/02 08:44:38;;;;;;;3.55;3.25;;;19.40;1.00;;;;;;5087585;28;20454;-95
2021/06/02 08:47:05;;;;;;;7.75;4.00;;;19.40;1.00;;;;;;5086365;28;20028;-95
2021/06/02 08:49:31;;;;;;;5.18;3.45;;;19.30;1.00;;;;;;5089986;28;20389;-95
2021/06/02 08:52:00;;;;;;;5.07;3.67;;;19.40;1.00;;;;;;5074411;28;20024;-95
2021/06/02 08:54:25;;;;;;;4.53;3.70;;;19.40;1.00;;;;;;5085018;28;20020;-95
2021/06/02 08:56:51;;;;;;;6.30;3.50;;;19.40;1.00;;;;;;5068051;28;20598;-95
2021/06/02 08:59:18;;;;;;;6.88;3.60;;;19.50;1.00;;;;;;5073847;28;20027;-94
2021/06/02 09:01:43;;;;;;;5.80;3.90;;;19.40;1.00;;;;;;5070228;28;20032;-93
2021/06/02 09:04:10;;;;;;;4.38;3.67;;;19.30;1.00;;;;;;5090955;28;20028;-94
2021/06/02 09:06:43;;;;;;;5.38;3.50;;;19.10;1.00;;;;;;5087953;28;20354;-95
2021/06/02 09:09:11;;;;;;;5.30;3.97;;;18.80;1.00;;;;;;5069258;28;20110;-96
2021/06/02 09:11:49;;;;;;;4.00;3.60;;;18.50;1.00;;;;;;5090740;28;20036;-95
2021/06/02 09:14:24;;;;;;;4.55;3.53;;;18.60;1.00;;;;;;5072063;28;20016;-95
2021/06/02 09:16:56;;;;;;;4.78;3.22;;;18.80;1.00;;;;;;5091863;28;20560;-95
2021/06/02 09:19:54;;;;;;;4.40;3.60;;;18.60;1.00;;;;;;5087413;28;20391;-95
2021/06/02 09:22:22;;;;;;;4.28;3.67;;;18.40;1.00;;;;;;5078397;28;20028;-95
2021/06/02 09:24:47;;;;;;;5.40;4.50;;;18.40;1.00;;;;;;5090479;28;20024;-95
2021/06/02 09:27:14;;;;;;;4.70;3.55;;;18.60;1.00;;;;;;5086335;28;20035;-95
2021/06/02 09:29:51;;;;;;;4.63;3.67;;;18.50;1.00;;;;;;5085341;28;20028;-95
2021/06/02 09:32:18;;;;;;;4.72;4.20;;;18.10;1.00;;;;;;5068747;28;20515;-96
2021/06/02 09:34:44;;;;;;;4.45;4.05;;;18.30;1.00;;;;;;5068420;28;20020;-94
2021/06/02 09:37:10;;;;;;;4.20;3.80;;;18.10;1.00;;;;;;5074215;28;20058;-96
2021/06/02 09:39:41;;;;;;;4.63;4.22;;;18.30;1.00;;;;;;5074677;28;20111;-95
2021/06/02 09:42:29;;;;;;;4.22;3.78;;;18.70;1.00;;;;;;5089252;28;20480;-96
2021/06/02 09:45:12;;;;;;;3.72;3.40;;;18.70;1.00;;;;;;5070707;28;20039;-96
2021/06/02 09:47:44;;;;;;;3.65;3.33;;;18.70;1.00;;;;;;5091542;28;20016;-95
2021/06/02 09:50:11;;;;;;;4.55;3.78;;;18.80;1.00;;;;;;5089964;28;20559;-95
2021/06/02 09:52:46;;;;;;;4.00;3.60;;;19.10;1.00;;;;;;5089767;28;20521;-96
2021/06/02 09:55:19;;;;;;;3.63;3.30;;;19.10;1.00;;;;;;5094232;28;20027;-95
2021/06/02 09:57:46;;;;;;;4.40;3.53;;;19.30;1.00;;;;;;5091521;28;20107;-95
2021/06/02 10:00:14;;;;;;;4.30;3.90;;;19.30;1.00;;;;;;5088719;28;20026;-95
2021/06/02 10:02:40;;;;;;;4.15;3.38;;;19.60;1.00;;;;;;5067933;28;20047;-95
2021/06/02 10:05:12;;;;;;;4.70;3.97;;;19.70;1.00;;;;;;5072746;28;20024;-95
2021/06/02 10:07:46;;;;;;;5.65;4.40;;;19.90;1.00;;;;;;5078112;28;20355;-95
2021/06/02 10:10:11;;;;;;;4.32;3.90;;;19.80;1.00;;;;;;5088360;28;20059;-96
2021/06/02 10:12:38;;;;;;;4.18;3.80;;;19.80;1.00;;;;;;5094567;28;20369;-95
2021/06/02 10:15:05;;;;;;;4.82;3.95;;;19.80;1.00;;;;;;5095255;28;20031;-96
2021/06/02 10:17:33;;;;;;;6.05;4.50;;;19.70;1.00;;;;;;5077161;28;20031;-95
2021/06/02 10:20:06;;;;;;;5.10;4.20;;;20.00;1.00;;;;;;5076456;28;20031;-95
2021/06/02 10:22:32;;;;;;;5.18;4.20;;;20.00;1.00;;;;;;5075824;28;20054;-94
2021/06/02 10:25:01;;;;;;;4.80;3.90;;;20.10;1.00;;;;;;5094380;28;20040;-94
2021/06/02 10:27:27;;;;;;;5.05;4.00;;;19.90;1.00;;;;;;5088733;28;20051;-95
2021/06/02 10:29:54;;;;;;;5.00;3.88;;;20.10;1.00;;;;;;5071295;28;20456;-94
2021/06/02 10:32:21;;;;;;;3.97;3.58;;;20.20;1.00;;;;;;5096570;28;20042;-94
2021/06/02 10:34:47;;;;;;;4.93;4.43;;;19.90;1.00;;;;;;5079435;28;20480;-94
2021/06/02 10:37:16;;;;;;;4.47;3.60;;;20.10;1.00;;;;;;5076861;28;20138;-93
2021/06/02 10:39:45;;;;;;;4.38;3.97;;;20.30;1.00;;;;;;5072168;28;20029;-93
2021/06/02 10:42:21;;;;;;;6.63;4.28;;;20.20;1.00;;;;;;5076652;28;20051;-93
2021/06/02 10:44:56;;;;;;;6.18;4.20;;;20.50;1.00;;;;;;5068475;28;20077;-93
2021/06/02 10:47:25;;;;;;;3.97;3.55;;;20.40;1.00;;;;;;5092627;28;20097;-92
2021/06/02 10:49:51;;;;;;;4.72;4.15;;;20.20;1.00;;;;;;5075489;28;20115;-94
2021/06/02 10:52:41;;;;;;;4.38;3.88;;;20.40;1.00;;;;;;5093103;28;20077;-94
2021/06/02 10:55:31;;;;;;;5.00;3.70;;;20.70;1.00;;;;;;5068971;28;20048;-94
2021/06/02 10:58:25;;;;;;;4.30;3.50;;;20.60;1.00;;;;;;5076146;28;20106;-92
2021/06/02 11:01:07;;;;;;;4.75;3.90;;;20.40;1.00;;;;;;4991782;28;20081;-93
2021/06/02 11:03:35;;;;;;;4.20;3.75;;;20.90;1.00;;;;;;4989785;28;20114;-94
2021/06/02 11:06:13;;;;;;;5.03;3.90;;;20.90;1.00;;;;;;4977636;28;20129;-93
2021/06/02 11:08:48;;;;;;;3.97;3.67;;;20.60;99.90;;;;;;4990957;28;20113;-95
2021/06/02 11:11:20;;;;;;;4.25;3.85;;;20.50;99.90;;;;;;4985155;28;20034;-93
2021/06/02 11:16:53;;;;;;;4.68;3.63;;;21.00;99.90;;;;;;4989759;28;20150;-94
2021/06/02 11:19:20;;;;;;;4.45;3.80;;;21.10;99.90;;;;;;4988814;28;20045;-93
2021/06/02 11:21:56;;;;;;;4.07;3.67;;;21.30;99.90;;;;;;4991142;28;20027;-93
2021/06/02 11:24:31;;;;;;;6.95;3.60;;;21.00;99.90;;;;;;4987360;28;20149;-93
2021/06/02 11:27:15;;;;;;;6.20;3.80;;;21.30;99.90;;;;;;4986186;28;20026;-93
2021/06/02 11:29:50;;;;;;;4.82;3.90;;;21.10;99.90;;;;;;4989597;28;20553;-93
2021/06/02 11:32:27;;;;;;;4.00;3.70;;;21.10;99.90;;;;;;4978538;28;20069;-93
2021/06/02 11:34:53;;;;;;;3.97;3.67;;;20.60;99.90;;;;;;4950881;29;20533;-94
2021/06/02 11:37:25;;;;;;;4.00;3.65;;;21.10;99.90;;;;;;4995963;28;20037;-93
2021/06/02 11:39:53;;;;;;;4.22;3.83;;;20.80;99.90;;;;;;5073417;28;20052;-93
2021/06/02 11:42:39;;;;;;;4.28;3.88;;;20.90;99.90;;;;;;5051808;28;20024;-94
2021/06/02 11:45:18;;;;;;;4.60;4.00;;;21.50;99.90;;;;;;5052728;28;20404;-93
2021/06/02 11:47:48;;;;;;;4.40;3.63;;;21.90;99.90;;;;;;5071666;28;20025;-94
2021/06/02 11:50:24;;;;;;;4.30;3.22;;;22.40;99.90;;;;;;5071998;28;20047;-93
2021/06/02 11:52:59;;;;;;;4.97;3.40;;;22.40;99.90;;;;;;5055267;28;20067;-94
2021/06/02 11:55:25;;;;;;;3.92;3.30;;;22.80;99.90;;;;;;5070933;28;20505;-93
2021/06/02 11:57:52;;;;;;;3.53;3.22;;;22.40;99.90;;;;;;5073243;28;20457;-93
2021/06/02 12:00:20;;;;;;;5.10;3.33;;;21.90;99.90;;;;;;5069808;28;20031;-93
2021/06/02 12:02:51;;;;;;;4.45;3.92;;;21.90;99.90;;;;;;5052931;28;20053;-94
2021/06/02 12:05:25;;;;;;;3.20;3.00;;;22.50;99.90;;;;;;5069907;28;20071;-94
2021/06/02 12:08:00;;;;;;;3.95;3.53;;;22.50;99.90;;;;;;5074742;28;20028;-94
2021/06/02 12:10:29;;;;;;;3.92;3.50;;;22.60;99.90;;;;;;5071524;28;20089;-93
2021/06/02 12:12:55;;;;;;;6.07;3.60;;;24.00;99.90;;;;;;5072972;28;20626;-93
2021/06/02 12:15:21;;;;;;;4.60;3.45;;;24.00;99.90;;;;;;5070264;28;20401;-93
2021/06/02 12:17:50;;;;;;;4.78;3.60;;;23.70;99.90;;;;;;5070670;28;20056;-93
2021/06/02 12:20:24;;;;;;;3.90;3.53;;;23.60;99.90;;;;;;5070719;28;20444;-93
2021/06/02 12:22:52;;;;;;;6.00;3.30;;;23.20;99.90;;;;;;5071084;28;20557;-94
2021/06/02 12:25:25;;;;;;;4.28;3.45;;;23.00;99.90;;;;;;5071062;28;20025;-93
2021/06/02 12:28:04;;;;;;;4.88;4.15;;;22.70;99.90;;;;;;5071162;28;20384;-93
2021/06/02 12:30:36;;;;;;;4.05;3.60;;;22.40;99.90;;;;;;5069078;28;20154;-93
2021/06/02 12:33:07;;;;;;;6.50;4.15;;;22.40;99.90;;;;;;5082285;28;20089;-93
2021/06/02 12:35:41;;;;;;;5.20;3.90;;;22.20;99.90;;;;;;5074416;28;20028;-93
2021/06/02 12:38:26;;;;;;;4.20;3.80;;;22.40;99.90;;;;;;5073976;28;20028;-93
2021/06/02 12:41:02;;;;;;;4.65;4.07;;;22.40;99.90;;;;;;5091290;28;20028;-93
2021/06/02 12:43:38;;;;;;;4.43;4.03;;;22.70;99.90;;;;;;5090168;28;20047;-93
2021/06/02 12:46:13;;;;;;;4.55;4.15;;;23.10;99.90;;;;;;5072235;28;20024;-93
2021/06/02 12:48:39;;;;;;;7.53;4.25;;;23.10;99.90;;;;;;5088600;28;20030;-93
2021/06/02 12:51:23;;;;;;;4.40;4.00;;;23.10;99.90;;;;;;5073133;28;20069;-93
2021/06/02 12:53:51;;;;;;;4.60;3.90;;;23.10;99.90;;;;;;5067097;28;20028;-93
2021/06/02 12:56:18;;;;;;;4.88;4.40;;;23.00;99.90;;;;;;5071218;28;20066;-93
2021/06/02 12:58:51;;;;;;;5.13;4.40;;;22.70;99.90;;;;;;5072587;28;20039;-93
2021/06/02 13:01:17;;;;;;;5.53;4.13;;;23.00;99.90;;;;;;5073553;28;20020;-93
2021/06/02 13:03:54;;;;;;;6.25;4.75;;;23.10;99.90;;;;;;5091813;28;20115;-94
2021/06/02 13:06:21;;;;;;;6.20;3.63;;;23.10;99.90;;;;;;5091326;28;20067;-93
2021/06/02 13:08:49;;;;;;;5.47;4.30;;;23.20;99.90;;;;;;5075939;28;20480;-93
2021/06/02 13:11:26;;;;;;;6.88;3.92;;;23.30;99.90;;;;;;5071255;28;20035;-93
2021/06/02 13:13:53;;;;;;;4.35;3.97;;;23.50;99.90;;;;;;5093944;28;20550;-93
2021/06/02 13:16:20;;;;;;;5.45;4.32;;;23.40;99.90;;;;;;5077681;28;20403;-93
2021/06/02 13:18:56;;;;;;;5.45;4.13;;;23.30;99.90;;;;;;5094196;28;20035;-93
2021/06/02 13:21:31;;;;;;;4.45;3.80;;;23.40;99.90;;;;;;5075898;28;20028;-93
2021/06/02 13:24:14;;;;;;;4.30;3.90;;;23.30;99.90;;;;;;5094166;28;20032;-93
2021/06/02 13:27:02;;;;;;;4.32;3.92;;;23.30;99.90;;;;;;5076292;28;20031;-94
2021/06/02 13:29:28;;;;;;;5.38;4.03;;;23.40;99.90;;;;;;5096812;28;20110;-92
2021/06/02 13:31:54;;;;;;;4.60;4.15;;;23.20;99.90;;;;;;5094918;28;20074;-93
2021/06/02 13:34:36;;;;;;;4.60;4.20;;;23.30;99.90;;;;;;5094138;28;20429;-93
2021/06/02 13:37:22;;;;;;;4.20;3.80;;;23.30;99.90;;;;;;5092806;28;20488;-93
2021/06/02 13:40:14;;;;;;;5.57;4.90;;;23.30;99.90;;;;;;5110189;28;20028;-92
2021/06/02 13:43:09;;;;;;;4.40;3.97;;;23.30;99.90;;;;;;5078945;28;20054;-93